Home > Products > Valid Products > TAF

000
FTUS43 KGLD 291743
TAFMCK
TAF
KMCK 291743Z 2918/3018 33024G35KT P6SM SKC
     FM300000 35008KT P6SM SKC
     FM300600 21007KT P6SM SCT250
     FM301500 23013KT P6SM FEW250=



000
FTUS43 KGLD 291743
TAFGLD
TAF
KGLD 291743Z 2918/3018 35020G30KT P6SM SKC
     FM300000 01008KT P6SM SKC
     FM300900 20010KT P6SM FEW250
     FM301500 22012G22KT P6SM SKC=



000
FTUS43 KGLD 291743
TAFMCK
TAF
KMCK 291743Z 2918/3018 33024G35KT P6SM SKC
     FM300000 35008KT P6SM SKC
     FM300600 21007KT P6SM SCT250
     FM301500 23013KT P6SM FEW250=



000
FTUS43 KGLD 291743
TAFMCK
TAF
KMCK 291743Z 2918/3018 33024G35KT P6SM SKC
     FM300000 35008KT P6SM SKC
     FM300600 21007KT P6SM SCT250
     FM301500 23013KT P6SM FEW250=



000
FTUS43 KGLD 291743
TAFGLD
TAF
KGLD 291743Z 2918/3018 35020G30KT P6SM SKC
     FM300000 01008KT P6SM SKC
     FM300900 20010KT P6SM FEW250
     FM301500 22012G22KT P6SM SKC=



000
FTUS43 KGLD 291743
TAFMCK
TAF
KMCK 291743Z 2918/3018 33024G35KT P6SM SKC
     FM300000 35008KT P6SM SKC
     FM300600 21007KT P6SM SCT250
     FM301500 23013KT P6SM FEW250=



000
FTUS43 KGLD 291131
TAFGLD
TAF
KGLD 291131Z 2912/3012 36017G27KT P6SM SCT030
     FM291400 33026G38KT P6SM FEW250
     FM291900 34021G29KT P6SM SKC
     FM292200 35011KT P6SM SKC
     FM300200 10006KT P6SM SKC=



000
FTUS43 KGLD 291131
TAFGLD
TAF
KGLD 291131Z 2912/3012 36017G27KT P6SM SCT030
     FM291400 33026G38KT P6SM FEW250
     FM291900 34021G29KT P6SM SKC
     FM292200 35011KT P6SM SKC
     FM300200 10006KT P6SM SKC=



000
FTUS43 KGLD 291131
TAFMCK
TAF
KMCK 291131Z 2912/3012 33015KT P6SM SKC
     FM291400 32027G39KT P6SM SKC
     FM291900 34016G23KT P6SM SKC
     FM300000 35011KT P6SM SKC
     FM300200 13005KT P6SM SKC=



000
FTUS43 KGLD 291131
TAFMCK
TAF
KMCK 291131Z 2912/3012 33015KT P6SM SKC
     FM291400 32027G39KT P6SM SKC
     FM291900 34016G23KT P6SM SKC
     FM300000 35011KT P6SM SKC
     FM300200 13005KT P6SM SKC=



000
FTUS43 KGLD 291131
TAFMCK
TAF
KMCK 291131Z 2912/3012 33015KT P6SM SKC
     FM291400 32027G39KT P6SM SKC
     FM291900 34016G23KT P6SM SKC
     FM300000 35011KT P6SM SKC
     FM300200 13005KT P6SM SKC=



000
FTUS43 KGLD 291131
TAFMCK
TAF
KMCK 291131Z 2912/3012 33015KT P6SM SKC
     FM291400 32027G39KT P6SM SKC
     FM291900 34016G23KT P6SM SKC
     FM300000 35011KT P6SM SKC
     FM300200 13005KT P6SM SKC=



000
FTUS43 KGLD 290714 AAB
TAFGLD
TAF AMD
KGLD 290714Z 2907/3006 28019G23KT P6SM BKN100
     FM290800 34019G27KT P6SM FEW250
     FM291300 35024G34KT P6SM SKC
     FM292100 36012KT P6SM SKC
     FM300100 VRB05KT P6SM SKC=



000
FTUS43 KGLD 290714 AAB
TAFGLD
TAF AMD
KGLD 290714Z 2907/3006 28019G23KT P6SM BKN100
     FM290800 34019G27KT P6SM FEW250
     FM291300 35024G34KT P6SM SKC
     FM292100 36012KT P6SM SKC
     FM300100 VRB05KT P6SM SKC=



000
FTUS43 KGLD 290633 AAA
TAFGLD
TAF AMD
KGLD 290633Z 2907/3006 21015KT P6SM FEW100 WS002/18046KT
     FM290800 34019G27KT P6SM FEW250
     FM291300 35024G34KT P6SM SKC
     FM292100 36012KT P6SM SKC
     FM300100 VRB05KT P6SM SKC=



000
FTUS43 KGLD 290633 AAA
TAFGLD
TAF AMD
KGLD 290633Z 2907/3006 21015KT P6SM FEW100 WS002/18046KT
     FM290800 34019G27KT P6SM FEW250
     FM291300 35024G34KT P6SM SKC
     FM292100 36012KT P6SM SKC
     FM300100 VRB05KT P6SM SKC=



000
FTUS43 KGLD 290521
TAFGLD
TAF
KGLD 290521Z 2906/3006 21015KT P6SM FEW100
     FM290700 26012KT P6SM SCT100
     FM290800 34019G27KT P6SM FEW250
     FM291300 35024G34KT P6SM SKC
     FM292100 36012KT P6SM SKC
     FM300100 VRB05KT P6SM SKC=



000
FTUS43 KGLD 290521
TAFMCK
TAF
KMCK 290521Z 2906/3006 20013G19KT P6SM SCT100
     FM290700 27010KT P6SM BKN100
     FM290800 33016G24KT P6SM SCT250
     FM291400 33025G35KT P6SM SKC
     FM292000 35015G23KT P6SM SKC
     FM292300 35008KT P6SM SKC
     FM300100 VRB04KT P6SM SKC=



000
FTUS43 KGLD 290521
TAFMCK
TAF
KMCK 290521Z 2906/3006 20013G19KT P6SM SCT100
     FM290700 27010KT P6SM BKN100
     FM290800 33016G24KT P6SM SCT250
     FM291400 33025G35KT P6SM SKC
     FM292000 35015G23KT P6SM SKC
     FM292300 35008KT P6SM SKC
     FM300100 VRB04KT P6SM SKC=



000
FTUS43 KGLD 290521
TAFMCK
TAF
KMCK 290521Z 2906/3006 20013G19KT P6SM SCT100
     FM290700 27010KT P6SM BKN100
     FM290800 33016G24KT P6SM SCT250
     FM291400 33025G35KT P6SM SKC
     FM292000 35015G23KT P6SM SKC
     FM292300 35008KT P6SM SKC
     FM300100 VRB04KT P6SM SKC=



000
FTUS43 KGLD 290521
TAFMCK
TAF
KMCK 290521Z 2906/3006 20013G19KT P6SM SCT100
     FM290700 27010KT P6SM BKN100
     FM290800 33016G24KT P6SM SCT250
     FM291400 33025G35KT P6SM SKC
     FM292000 35015G23KT P6SM SKC
     FM292300 35008KT P6SM SKC
     FM300100 VRB04KT P6SM SKC=



000
FTUS43 KGLD 290521
TAFGLD
TAF
KGLD 290521Z 2906/3006 21015KT P6SM FEW100
     FM290700 26012KT P6SM SCT100
     FM290800 34019G27KT P6SM FEW250
     FM291300 35024G34KT P6SM SKC
     FM292100 36012KT P6SM SKC
     FM300100 VRB05KT P6SM SKC=



000
FTUS43 KGLD 282336
TAFMCK
TAF
KMCK 282336Z 2900/2924 17013G18KT P6SM SCT120
     FM290600 24011KT P6SM BKN100
     FM290900 33016G24KT P6SM SCT250
     FM291400 34024G34KT P6SM SKC
     FM292100 35015G22KT P6SM SKC=



000
FTUS43 KGLD 282336
TAFGLD
TAF
KGLD 282336Z 2900/2924 23010KT P6SM SKC
     FM290200 19010KT P6SM SKC
     FM290600 23012G19KT P6SM FEW100
     FM290800 34017G24KT P6SM FEW250
     FM291300 35022G32KT P6SM SKC
     FM292100 36011KT P6SM SKC=



000
FTUS43 KGLD 282336
TAFMCK
TAF
KMCK 282336Z 2900/2924 17013G18KT P6SM SCT120
     FM290600 24011KT P6SM BKN100
     FM290900 33016G24KT P6SM SCT250
     FM291400 34024G34KT P6SM SKC
     FM292100 35015G22KT P6SM SKC=



000
FTUS43 KGLD 282336
TAFMCK
TAF
KMCK 282336Z 2900/2924 17013G18KT P6SM SCT120
     FM290600 24011KT P6SM BKN100
     FM290900 33016G24KT P6SM SCT250
     FM291400 34024G34KT P6SM SKC
     FM292100 35015G22KT P6SM SKC=



000
FTUS43 KGLD 282336
TAFGLD
TAF
KGLD 282336Z 2900/2924 23010KT P6SM SKC
     FM290200 19010KT P6SM SKC
     FM290600 23012G19KT P6SM FEW100
     FM290800 34017G24KT P6SM FEW250
     FM291300 35022G32KT P6SM SKC
     FM292100 36011KT P6SM SKC=



000
FTUS43 KGLD 282336
TAFMCK
TAF
KMCK 282336Z 2900/2924 17013G18KT P6SM SCT120
     FM290600 24011KT P6SM BKN100
     FM290900 33016G24KT P6SM SCT250
     FM291400 34024G34KT P6SM SKC
     FM292100 35015G22KT P6SM SKC=



000
FTUS43 KGLD 281745
TAFMCK
TAF
KMCK 281745Z 2818/2918 16008KT P6SM SKC
     FM290900 32012G22KT P6SM SCT200
     FM291400 32020G32KT P6SM SKC=



000
FTUS43 KGLD 281745
TAFMCK
TAF
KMCK 281745Z 2818/2918 16008KT P6SM SKC
     FM290900 32012G22KT P6SM SCT200
     FM291400 32020G32KT P6SM SKC=



000
FTUS43 KGLD 281745
TAFGLD
TAF
KGLD 281745Z 2818/2918 20008KT P6SM SKC
     FM290800 32013G25KT P6SM FEW150 SCT250
     FM291400 34022G33KT P6SM FEW250=



000
FTUS43 KGLD 281745
TAFMCK
TAF
KMCK 281745Z 2818/2918 16008KT P6SM SKC
     FM290900 32012G22KT P6SM SCT200
     FM291400 32020G32KT P6SM SKC=



000
FTUS43 KGLD 281745
TAFMCK
TAF
KMCK 281745Z 2818/2918 16008KT P6SM SKC
     FM290900 32012G22KT P6SM SCT200
     FM291400 32020G32KT P6SM SKC=



000
FTUS43 KGLD 281745
TAFGLD
TAF
KGLD 281745Z 2818/2918 20008KT P6SM SKC
     FM290800 32013G25KT P6SM FEW150 SCT250
     FM291400 34022G33KT P6SM FEW250=



000
FTUS43 KGLD 281120
TAFMCK
TAF
KMCK 281120Z 2812/2912 VRB05KT P6SM FEW250
     FM281800 15008KT P6SM SKC
     FM282100 18011KT P6SM FEW250
     FM290500 22012G17KT P6SM SCT250
     FM290900 32015G24KT P6SM BKN100=



000
FTUS43 KGLD 281120
TAFGLD
TAF
KGLD 281120Z 2812/2912 26006KT P6SM SKC
     FM282000 28011KT P6SM FEW250
     FM290000 21008KT P6SM SCT250
     FM290600 23012G17KT P6SM SCT250
     FM290900 33018G30KT P6SM FEW250=



000
FTUS43 KGLD 281120
TAFMCK
TAF
KMCK 281120Z 2812/2912 VRB05KT P6SM FEW250
     FM281800 15008KT P6SM SKC
     FM282100 18011KT P6SM FEW250
     FM290500 22012G17KT P6SM SCT250
     FM290900 32015G24KT P6SM BKN100=



000
FTUS43 KGLD 281120
TAFMCK
TAF
KMCK 281120Z 2812/2912 VRB05KT P6SM FEW250
     FM281800 15008KT P6SM SKC
     FM282100 18011KT P6SM FEW250
     FM290500 22012G17KT P6SM SCT250
     FM290900 32015G24KT P6SM BKN100=



000
FTUS43 KGLD 281120
TAFMCK
TAF
KMCK 281120Z 2812/2912 VRB05KT P6SM FEW250
     FM281800 15008KT P6SM SKC
     FM282100 18011KT P6SM FEW250
     FM290500 22012G17KT P6SM SCT250
     FM290900 32015G24KT P6SM BKN100=



000
FTUS43 KGLD 281120
TAFGLD
TAF
KGLD 281120Z 2812/2912 26006KT P6SM SKC
     FM282000 28011KT P6SM FEW250
     FM290000 21008KT P6SM SCT250
     FM290600 23012G17KT P6SM SCT250
     FM290900 33018G30KT P6SM FEW250=



000
FTUS43 KGLD 280521
TAFMCK
TAF
KMCK 280521Z 2806/2906 VRB06KT P6SM SCT250
     FM281600 16012KT P6SM FEW250=



000
FTUS43 KGLD 280521
TAFGLD
TAF
KGLD 280521Z 2806/2906 28007KT P6SM FEW250
     FM281800 20010KT P6SM SCT150=



000
FTUS43 KGLD 280521
TAFMCK
TAF
KMCK 280521Z 2806/2906 VRB06KT P6SM SCT250
     FM281600 16012KT P6SM FEW250=



000
FTUS43 KGLD 280521
TAFMCK
TAF
KMCK 280521Z 2806/2906 VRB06KT P6SM SCT250
     FM281600 16012KT P6SM FEW250=



000
FTUS43 KGLD 280521
TAFGLD
TAF
KGLD 280521Z 2806/2906 28007KT P6SM FEW250
     FM281800 20010KT P6SM SCT150=



000
FTUS43 KGLD 272321
TAFMCK
TAF
KMCK 272321Z 2800/2824 VRB06KT P6SM BKN130
     FM280800 29006KT P6SM SCT250
     FM281400 VRB05KT P6SM SKC
     FM281700 16009KT P6SM FEW120=



000
FTUS43 KGLD 272321
TAFMCK
TAF
KMCK 272321Z 2800/2824 VRB06KT P6SM BKN130
     FM280800 29006KT P6SM SCT250
     FM281400 VRB05KT P6SM SKC
     FM281700 16009KT P6SM FEW120=



000
FTUS43 KGLD 272321
TAFGLD
TAF
KGLD 272321Z 2800/2824 32008KT P6SM BKN100
     FM280200 27008KT P6SM SCT200
     FM281600 VRB06KT P6SM SKC
     FM282000 23008KT P6SM SCT120=



000
FTUS43 KGLD 272010 AAB
TAFGLD
TAF AMD
KGLD 272010Z 2720/2818 33012G23KT P6SM SCT070
     FM280200 29007KT P6SM FEW070 SCT150
     FM280500 27007KT P6SM SCT200=



000
FTUS43 KGLD 272008 AAA
TAFMCK
TAF AMD
KMCK 272008Z 2720/2818 18009KT P6SM SCT070 SCT110
     FM280300 21007KT P6SM SCT150 BKN250
     FM280700 29005KT P6SM SCT200
     FM281200 VRB05KT P6SM FEW200=



000
FTUS43 KGLD 272008 AAA
TAFMCK
TAF AMD
KMCK 272008Z 2720/2818 18009KT P6SM SCT070 SCT110
     FM280300 21007KT P6SM SCT150 BKN250
     FM280700 29005KT P6SM SCT200
     FM281200 VRB05KT P6SM FEW200=



000
FTUS43 KGLD 272008 AAA
TAFMCK
TAF AMD
KMCK 272008Z 2720/2818 18009KT P6SM SCT070 SCT110
     FM280300 21007KT P6SM SCT150 BKN250
     FM280700 29005KT P6SM SCT200
     FM281200 VRB05KT P6SM FEW200=



000
FTUS43 KGLD 272008 AAA
TAFMCK
TAF AMD
KMCK 272008Z 2720/2818 18009KT P6SM SCT070 SCT110
     FM280300 21007KT P6SM SCT150 BKN250
     FM280700 29005KT P6SM SCT200
     FM281200 VRB05KT P6SM FEW200=



000
FTUS43 KGLD 271722
TAFMCK
TAF
KMCK 271722Z 2718/2818 19011KT P6SM BKN015
     FM272100 23008KT P6SM SCT150 BKN250
     FM280700 29005KT P6SM SCT200
     FM281200 VRB05KT P6SM FEW200=



000
FTUS43 KGLD 271722
TAFGLD
TAF
KGLD 271722Z 2718/2818 23015KT P6SM SCT300
     FM272100 30012KT P6SM FEW150 SCT300
     FM280000 30010KT P6SM BKN150
     FM280500 27007KT P6SM SCT200=



000
FTUS43 KGLD 271722
TAFMCK
TAF
KMCK 271722Z 2718/2818 19011KT P6SM BKN015
     FM272100 23008KT P6SM SCT150 BKN250
     FM280700 29005KT P6SM SCT200
     FM281200 VRB05KT P6SM FEW200=



000
FTUS43 KGLD 271722
TAFMCK
TAF
KMCK 271722Z 2718/2818 19011KT P6SM BKN015
     FM272100 23008KT P6SM SCT150 BKN250
     FM280700 29005KT P6SM SCT200
     FM281200 VRB05KT P6SM FEW200=



000
FTUS43 KGLD 271722
TAFMCK
TAF
KMCK 271722Z 2718/2818 19011KT P6SM BKN015
     FM272100 23008KT P6SM SCT150 BKN250
     FM280700 29005KT P6SM SCT200
     FM281200 VRB05KT P6SM FEW200=



000
FTUS43 KGLD 271722
TAFGLD
TAF
KGLD 271722Z 2718/2818 23015KT P6SM SCT300
     FM272100 30012KT P6SM FEW150 SCT300
     FM280000 30010KT P6SM BKN150
     FM280500 27007KT P6SM SCT200=



000
FTUS43 KGLD 271446 AAA
TAFMCK
TAF AMD
KMCK 271446Z 2715/2812 19007KT P6SM OVC006
     FM271700 19010KT P6SM BKN070
     FM272200 30007KT P6SM BKN200
     FM280300 25006KT P6SM SCT250=



000
FTUS43 KGLD 271446 AAA
TAFMCK
TAF AMD
KMCK 271446Z 2715/2812 19007KT P6SM OVC006
     FM271700 19010KT P6SM BKN070
     FM272200 30007KT P6SM BKN200
     FM280300 25006KT P6SM SCT250=



000
FTUS43 KGLD 271446 AAA
TAFMCK
TAF AMD
KMCK 271446Z 2715/2812 19007KT P6SM OVC006
     FM271700 19010KT P6SM BKN070
     FM272200 30007KT P6SM BKN200
     FM280300 25006KT P6SM SCT250=



000
FTUS43 KGLD 271446 AAA
TAFMCK
TAF AMD
KMCK 271446Z 2715/2812 19007KT P6SM OVC006
     FM271700 19010KT P6SM BKN070
     FM272200 30007KT P6SM BKN200
     FM280300 25006KT P6SM SCT250=



000
FTUS43 KGLD 271121
TAFMCK
TAF
KMCK 271121Z 2712/2812 VRB03KT 5SM -SHSN SCT005 OVC035
      TEMPO 2712/2714 2SM -SN BR BKN004
     FM271600 19010KT P6SM OVC070
     FM272200 30007KT P6SM BKN200
     FM280300 25006KT P6SM SCT250=



000
FTUS43 KGLD 271121
TAFGLD
TAF
KGLD 271121Z 2712/2812 17006KT P6SM BKN080
     FM271700 28009KT P6SM SCT250
     FM271900 31011G19KT P6SM SCT250
     FM280000 32008KT P6SM SCT200
     FM280500 26008KT P6SM SCT250=



000
FTUS43 KGLD 271121
TAFMCK
TAF
KMCK 271121Z 2712/2812 VRB03KT 5SM -SHSN SCT005 OVC035
      TEMPO 2712/2714 2SM -SN BR BKN004
     FM271600 19010KT P6SM OVC070
     FM272200 30007KT P6SM BKN200
     FM280300 25006KT P6SM SCT250=



000
FTUS43 KGLD 271001 AAC
TAFMCK
TAF AMD
KMCK 271001Z 2710/2806 09005KT 5SM -SN BR SCT015 OVC100
      TEMPO 2710/2713 2SM -SHSN BR BKN015
     FM271400 VRB04KT P6SM BKN040 OVC100
     FM271800 20009KT P6SM BKN110
     FM272200 28009KT P6SM BKN250
     FM280300 31004KT P6SM BKN150=



000
FTUS43 KGLD 271001 AAC
TAFMCK
TAF AMD
KMCK 271001Z 2710/2806 09005KT 5SM -SN BR SCT015 OVC100
      TEMPO 2710/2713 2SM -SHSN BR BKN015
     FM271400 VRB04KT P6SM BKN040 OVC100
     FM271800 20009KT P6SM BKN110
     FM272200 28009KT P6SM BKN250
     FM280300 31004KT P6SM BKN150=



000
FTUS43 KGLD 270924 AAB
TAFMCK
TAF AMD
KMCK 270924Z 2709/2806 09005KT P6SM VCSH SCT015 OVC100
      TEMPO 2709/2712 4SM -SHSN BKN015
     FM271300 VRB04KT P6SM BKN040 OVC100
     FM271800 20009KT P6SM BKN110
     FM272200 28009KT P6SM BKN250
     FM280300 31004KT P6SM BKN150=



000
FTUS43 KGLD 270924 AAB
TAFMCK
TAF AMD
KMCK 270924Z 2709/2806 09005KT P6SM VCSH SCT015 OVC100
      TEMPO 2709/2712 4SM -SHSN BKN015
     FM271300 VRB04KT P6SM BKN040 OVC100
     FM271800 20009KT P6SM BKN110
     FM272200 28009KT P6SM BKN250
     FM280300 31004KT P6SM BKN150=



000
FTUS43 KGLD 270924 AAB
TAFMCK
TAF AMD
KMCK 270924Z 2709/2806 09005KT P6SM VCSH SCT015 OVC100
      TEMPO 2709/2712 4SM -SHSN BKN015
     FM271300 VRB04KT P6SM BKN040 OVC100
     FM271800 20009KT P6SM BKN110
     FM272200 28009KT P6SM BKN250
     FM280300 31004KT P6SM BKN150=



000
FTUS43 KGLD 270924 AAB
TAFMCK
TAF AMD
KMCK 270924Z 2709/2806 09005KT P6SM VCSH SCT015 OVC100
      TEMPO 2709/2712 4SM -SHSN BKN015
     FM271300 VRB04KT P6SM BKN040 OVC100
     FM271800 20009KT P6SM BKN110
     FM272200 28009KT P6SM BKN250
     FM280300 31004KT P6SM BKN150=



000
FTUS43 KGLD 270650 AAA
TAFMCK
TAF AMD
KMCK 270650Z 2707/2806 09005KT P6SM VCSH SCT015 OVC100
      TEMPO 2708/2712 -SHRA BKN015
     FM271300 VRB04KT P6SM BKN040 OVC100
     FM271800 20009KT P6SM BKN110
     FM272200 28009KT P6SM BKN250
     FM280300 31004KT P6SM BKN150=



000
FTUS43 KGLD 270650 AAA
TAFMCK
TAF AMD
KMCK 270650Z 2707/2806 09005KT P6SM VCSH SCT015 OVC100
      TEMPO 2708/2712 -SHRA BKN015
     FM271300 VRB04KT P6SM BKN040 OVC100
     FM271800 20009KT P6SM BKN110
     FM272200 28009KT P6SM BKN250
     FM280300 31004KT P6SM BKN150=



000
FTUS43 KGLD 270650 AAA
TAFMCK
TAF AMD
KMCK 270650Z 2707/2806 09005KT P6SM VCSH SCT015 OVC100
      TEMPO 2708/2712 -SHRA BKN015
     FM271300 VRB04KT P6SM BKN040 OVC100
     FM271800 20009KT P6SM BKN110
     FM272200 28009KT P6SM BKN250
     FM280300 31004KT P6SM BKN150=



000
FTUS43 KGLD 270650 AAA
TAFMCK
TAF AMD
KMCK 270650Z 2707/2806 09005KT P6SM VCSH SCT015 OVC100
      TEMPO 2708/2712 -SHRA BKN015
     FM271300 VRB04KT P6SM BKN040 OVC100
     FM271800 20009KT P6SM BKN110
     FM272200 28009KT P6SM BKN250
     FM280300 31004KT P6SM BKN150=



000
FTUS43 KGLD 270521
TAFMCK
TAF
KMCK 270521Z 2706/2806 04015KT P6SM SCT015 OVC100
      TEMPO 2707/2711 BKN015
     FM271200 VRB04KT P6SM BKN040 OVC100
     FM271800 20009KT P6SM BKN110
     FM272200 28009KT P6SM BKN250
     FM280300 31004KT P6SM BKN150=



000
FTUS43 KGLD 270521
TAFMCK
TAF
KMCK 270521Z 2706/2806 04015KT P6SM SCT015 OVC100
      TEMPO 2707/2711 BKN015
     FM271200 VRB04KT P6SM BKN040 OVC100
     FM271800 20009KT P6SM BKN110
     FM272200 28009KT P6SM BKN250
     FM280300 31004KT P6SM BKN150=



000
FTUS43 KGLD 270521
TAFMCK
TAF
KMCK 270521Z 2706/2806 04015KT P6SM SCT015 OVC100
      TEMPO 2707/2711 BKN015
     FM271200 VRB04KT P6SM BKN040 OVC100
     FM271800 20009KT P6SM BKN110
     FM272200 28009KT P6SM BKN250
     FM280300 31004KT P6SM BKN150=



000
FTUS43 KGLD 270521
TAFGLD
TAF
KGLD 270521Z 2706/2806 08008KT P6SM SCT040 OVC100
     FM270900 14005KT P6SM OVC100
     FM271500 22009KT P6SM BKN250
     FM271900 32013G20KT P6SM BKN250
     FM280200 31008KT P6SM SCT120=



000
FTUS43 KGLD 270521
TAFGLD
TAF
KGLD 270521Z 2706/2806 08008KT P6SM SCT040 OVC100
     FM270900 14005KT P6SM OVC100
     FM271500 22009KT P6SM BKN250
     FM271900 32013G20KT P6SM BKN250
     FM280200 31008KT P6SM SCT120=



000
FTUS43 KGLD 270521
TAFMCK
TAF
KMCK 270521Z 2706/2806 04015KT P6SM SCT015 OVC100
      TEMPO 2707/2711 BKN015
     FM271200 VRB04KT P6SM BKN040 OVC100
     FM271800 20009KT P6SM BKN110
     FM272200 28009KT P6SM BKN250
     FM280300 31004KT P6SM BKN150=



000
FTUS43 KGLD 270349 AAB
TAFMCK
TAF AMD
KMCK 270349Z 2704/2724 04015KT P6SM OVC050
     FM270700 08005KT P6SM SCT020 OVC050
      TEMPO 2707/2710 BKN020
     FM271000 15006KT P6SM OVC035=



000
FTUS43 KGLD 270349 AAB
TAFMCK
TAF AMD
KMCK 270349Z 2704/2724 04015KT P6SM OVC050
     FM270700 08005KT P6SM SCT020 OVC050
      TEMPO 2707/2710 BKN020
     FM271000 15006KT P6SM OVC035=



000
FTUS43 KGLD 270348 AAB
TAFGLD
TAF AMD
KGLD 270348Z 2704/2724 VRB04KT P6SM SCT040 OVC100
     FM271700 29014G22KT P6SM BKN250=



000
FTUS43 KGLD 270305 AAA
TAFMCK
TAF AMD
KMCK 270305Z 2703/2724 34014G20KT P6SM OVC050
     FM270700 08005KT P6SM SCT025 OVC050
      TEMPO 2707/2710 BKN025
     FM271000 15006KT P6SM OVC035=



000
FTUS43 KGLD 270305 AAA
TAFMCK
TAF AMD
KMCK 270305Z 2703/2724 34014G20KT P6SM OVC050
     FM270700 08005KT P6SM SCT025 OVC050
      TEMPO 2707/2710 BKN025
     FM271000 15006KT P6SM OVC035=



000
FTUS43 KGLD 262327
TAFMCK
TAF
KMCK 262327Z 2700/2724 34017G24KT P6SM OVC080
     FM270200 03009KT P6SM OVC080
     FM270800 08005KT P6SM SCT035 OVC060
     FM271200 15006KT P6SM OVC035=



000
FTUS43 KGLD 262327
TAFMCK
TAF
KMCK 262327Z 2700/2724 34017G24KT P6SM OVC080
     FM270200 03009KT P6SM OVC080
     FM270800 08005KT P6SM SCT035 OVC060
     FM271200 15006KT P6SM OVC035=



000
FTUS43 KGLD 262327
TAFGLD
TAF
KGLD 262327Z 2700/2724 35017G24KT P6SM OVC100
     FM270200 36014KT P6SM BKN100
     FM270800 13005KT P6SM SCT040 BKN080
     FM271700 29014G22KT P6SM BKN250=



    US Dept of Commerce
    National Oceanic and Atmospheric Administration
    National Weather Service
    1325 East West Highway
    Silver Spring, MD 20910
    Page Author: NWS Internet Services Team
Disclaimer
Information Quality
Credits
Glossary
Privacy Policy
Freedom of Information Act (FOIA)
About Us
Career Opportunities